الصفحة الرئيسية
METAR-TAF:

METAR-TAF

مطار :

راولبندي, باكستان

دائرة عرض: 33-37N, خط طول: 073-06E, ارتفاع: 507 متر

مراقبة الطقس الحالي

تاريخ ووقت الإصدار 13 دقيقة قبل الساعة 20:30UTC
رياح هادئة
درجة الحرارة 11°درجة مئوية
الرطوبة 76%
ضغط 1014 hPa
الرؤية: 4000 متر
غيوم قليلة على ارتفاع 7000 قدم
غيوم متفرقة على ارتفاع 19000 قدم
العجاج

METAR: OPRN 232030Z 00000KT 4000 HZ FEW070 SCT190 11/07 Q1014 NOSIG RMK A2996

زمن: 01:43 (20:43 UTC)

توقعات

تاريخ ووقت الإصدار 5ساعات و 13 دقيقة قبل الساعة 15:30UTC
التوقعات صالحة من23 الساعة 18 UTC إلى 24 الساعة 24 UTC
ريح 8 عقدة من الشرق/الشمال الشرقي
الرؤية: 5000 متر
العجاج
مؤقت
من 24 الساعة 00 UTC إلى 24 الساعة 03 UTC
الرؤية: 3000 متر
غشاء
أصبح
من 24 الساعة 06 UTC إلى 24 الساعة 08 UTC
ريح 10 عقدة من الغرب
الرؤية 10 كم أو أكثر
غيوم قليلة على ارتفاع 10000 قدم
غيوم متفرقة على ارتفاع 20000 قدم

TAF: OPRN 231530Z 2318/2424 07008KT 5000 HZ NSC TEMPO 2400/2403 3000 BR BECMG 2406/2408 27010KT 9999 FEW100 SCT200

أرصاد الطقس والتوقعات من أكثر من 4000 مطار (تقارير الطقس للمطار METAR والتنبؤ بالطقس بالمطارTAF).

المحطات المتاحة هي النقط الصفراء والحمراء على الخريطة.

حرك المؤشر فوق النقطة لمعرفة اسم المحطة.

ثم انقر لمعرفة أرصاد وتوقعات الطقس.

لتغيير الخارطة: اضغط على الأزرار الخضراء مع رمز الصليب الأسود للتكبير. على الزر الأخضر مع شرطة للتصغير، أو على الأسهم الخضراء للخرائط المجاورة.


METAR-TAF: